Airfield :
LOGIN :

Register | Disclaimer

   EN    FR    IT 

 










Legend :    VFR   Marginal VFR   IFR   Intensive IFR   Very Intensive IFR
Visi :
Ceiling :
>= 8 km
>= 3000ft
5 to 8 km
1000 to 3000 ft
1500m to 5 km
500 to 1000 ft
800 to 1500m
200 to 500 ft
< 800m
< 200 ft
Symbols :   Thunderstorms  Fog  Heavy snow  Heavy precipitations  Wind > 20 kt
SIGMETs :     Misc.  Thunderstorms  Icing  Turbulence  Mountain Waves  Volcanic Ashes







- Airport Elevation : 2661 ft
- IATA code : TEE


DABS - Cheikh Larbi Tebessi

CURRENT METAR :
  • 192100Z 00000KT 8000 FEW033 SCT200 11/07 Q1023

EXPIRED METARs :
  • 192000Z 14004KT 8000 FEW033 SCT200 13/07 Q1023
  • 191900Z 14006KT 8000 FEW030TCU SCT033 14/07 Q1022
  • 191800Z 14006KT 8000 FEW030TCU SCT033 15/07 Q1022

TAF TAF DABS
Valid from the 19 at 18:00 until the 20 at 18:00 UTC


191700Z 1918/2018 34013KT 8000 SCT033 SCT200
PROB40
TEMPO 1918/1923 3000 -TSRA BKN015 FEW023CB
BECMG 1923/2001 16009KT
PROB40
TEMPO 2001/2007 3000 BR BKN010
BECMG 2010/2012 03013KT FEW023TCU
No reported NOTAMs for that airfield.
1 SIGMET reported for the Alger FIR (DAAA) :
 
Embedded thunderstorms
DAAA SIGMET 3 VALID 191900/192300 DAMM
DAAA ALGIERS FIR EMBD TS OBS N OF LINE N3420 E00737 - N3415 E00534 TOP FL320 STNR NC=



MET'MAP, your aeronautical weather chart ! - Copyright ORBIFLY December 2007 - Disclaimer

ORBIFLY MET'MAP TEAM :

Programming & Development : Alexandra Zaïnal
Concept & Development : Baudouin d'Aumeries
Co-Development & Prog : Marc-Olivier Méhu
Technical & hardware support : Manuel Goepfert

Contact : metmap@orbifly.com




SOURCES & CREDITS :

   NOAA